CheckWX is a tool to help pilots better visualize weather data.  It is not intended as a substitute for an official pre-flight weather briefing.

04:42:48 UTC

SCIP METAR
Mataveri Airport
Isla De Pascua, Chile
Current

43 mins ago

SCIP 180400Z 11003KT 9999 FEW025 21/20 Q1018 NOSIG
Observed
Feb-18 @ 04:00 UTC
Wind
  • 110° at 3 KTS
Visibility
10,000+ meters
Flight Rules
VFR
Cloud Levels
  • Few at 2,500' AGL
Temperature
21°C / 70°F
Dewpoint
20°C / 68°F
Humidity
94%
Altimeter
30.06" Hg
Pressure
1017.92 hPa
Previous

2 hours ago

SCIP 180300Z VRB02KT 9999 FEW025 21/19 Q1017 NOSIG
Observed
Feb-18 @ 03:00 UTC
Wind
  • Variable at 2 KTS
Visibility
10,000+ meters
Flight Rules
VFR
Cloud Levels
  • Few at 2,500' AGL
Temperature
21°C / 70°F
Dewpoint
19°C / 66°F
Humidity
88%
Altimeter
30.03" Hg
Pressure
1016.92 hPa
Previous

3 hours ago

SCIP 180200Z 12005KT 9999 FEW020 23/20 Q1017 NOSIG
Observed
Feb-18 @ 02:00 UTC
Wind
  • 120° at 5 KTS
Visibility
10,000+ meters
Flight Rules
VFR
Cloud Levels
  • Few at 2,000' AGL
Temperature
23°C / 73°F
Dewpoint
20°C / 68°F
Humidity
83%
Altimeter
30.03" Hg
Pressure
1016.92 hPa